METAR Switzerland - 19 Feb 2018 - 0153 UTC - RocketRoute WX - rrwx.com
LSMA 190050Z AUTO 09002KT ////NDV OVC014 01/M01 Q1020 RMK MIS LFSB 190130Z AUTO 33004KT 4200 BR OVC004 01/M00 Q1021 TEMPO 0300 FZFG VV/// LSZB 190150Z AUTO 31003KT 6000 OVC024 00/M01 Q1019 LSZC 190150Z AUTO VRB01KT 5000 BKN013 01/M01 Q1020 LSMD 190050Z AUTO VRB01KT 7000NDV OVC034 00/M02 Q1020 RMK LSME 190050Z AUTO 00000KT 5000NDV FEW011 OVC013 01/M01 Q1020 RMK LSZR 190150Z AUTO 32004KT 9000 OVC010 01/M01 Q1020 LSGG 190150Z AUTO 01002KT 9999 OVC023 02/M02 Q1019 NOSIG LSZG 190150Z AUTO 04002KT 7000 OVC028 00/M01 Q1020 LSGC 190150Z AUTO VRB03KT 9999 OVC007 M04/M05 Q1016 LSZL 190050Z AUTO VRB01KT 9999NDV -DZ FEW011 SCT017 BKN020 05/03 Q1020 RMK LSZA 190150Z AUTO VRB03KT 9999 -RA SCT016 SCT021 BKN027 03/01 Q1020 LSMM 190050Z AUTO 10003KT 4600NDV BR FEW028 M02/M03 Q1019 RMK LSMP 190050Z AUTO VRB02KT 8000NDV BKN023 OVC027 01/M01 Q1020 RMK LSZS 190150Z AUTO 00000KT 9999 OVC036 M09/M11 Q1014 LSGS 190150Z AUTO 00000KT CAVOK 01/M01 Q1019 LSZH 190150Z 29003KT 5000 BR FEW008 OVC030 M01/M02 Q1020 BECMG 4000

RocketRoute WX - rrwx.com weather for pilots